SEA weather

Seattle Tacoma International Airport
Seattle, Washington, United States

Public forecast

Using degrees Fahrenheit for public forecast. Weather courtesy of forecast.io.

Current aviation weather report (METAR) for Seattle Tacoma International Airport

Retrieved 2020/08/07 22:53 UTC (33 minutes ago):

KSEA 072253Z 27007KT 10SM SCT040 BKN250 23/09 A3016 RMK AO2 SLP218 T02330094

Aviation forecast (TAF) for Seattle Tacoma International Airport

Retrieved 2020/08/07 18:40 UTC (5 hours ago):

TAF KSEA 071737Z 0718/0824 20008KT P6SM SCT015 BKN025 FM071900 22007KT P6SM BKN040 FM072100 25007KT P6SM SCT050 OVC100 FM080000 35004KT P6SM SCT050 OVC100 FM081100 20005KT P6SM OVC035 FM081800 26006KT P6SM BKN050